createdAt,value
2023-03-25T00:03:09.655Z,71.00
2023-03-25T00:08:13.880Z,70.80
2023-03-25T00:13:18.437Z,70.60
2023-03-25T00:18:23.179Z,70.20
2023-03-25T00:23:28.037Z,70.20
2023-03-25T00:28:36.489Z,69.40
2023-03-25T00:33:43.860Z,69.80
2023-03-25T00:38:49.649Z,69.90
2023-03-25T00:43:55.928Z,70.00
2023-03-25T00:49:01.301Z,69.80
2023-03-25T00:54:05.329Z,70.10
2023-03-25T00:59:11.808Z,69.50
2023-03-25T01:04:17.086Z,69.30
2023-03-25T01:09:22.019Z,69.40
2023-03-25T01:14:27.934Z,69.10
2023-03-25T01:19:31.907Z,68.80
2023-03-25T01:24:35.855Z,68.00
2023-03-25T01:29:39.921Z,67.80
2023-03-25T01:34:44.786Z,68.00
2023-03-25T01:39:48.670Z,67.10
2023-03-25T01:44:53.022Z,66.50
2023-03-25T01:49:57.052Z,66.40
2023-03-25T01:55:01.707Z,66.60
2023-03-25T02:00:09.718Z,66.40
2023-03-25T02:05:22.078Z,66.00
2023-03-25T02:10:26.197Z,65.70
2023-03-25T02:15:35.668Z,65.10
2023-03-25T02:20:54.719Z,64.80
2023-03-25T02:26:30.098Z,64.50
2023-03-25T02:31:55.535Z,63.90
2023-03-25T02:37:18.481Z,62.80
2023-03-25T02:42:38.448Z,63.00
2023-03-25T02:47:47.634Z,63.60
2023-03-25T02:52:56.043Z,63.40
2023-03-25T02:58:04.346Z,63.50
2023-03-25T03:03:09.390Z,63.40
2023-03-25T03:08:32.054Z,63.40
2023-03-25T03:13:52.072Z,63.20
2023-03-25T03:19:24.544Z,63.40
2023-03-25T03:24:37.209Z,63.20
2023-03-25T03:29:48.560Z,63.70
2023-03-25T03:35:38.724Z,65.00
2023-03-25T03:40:49.950Z,64.30
2023-03-25T03:45:58.929Z,64.70
2023-03-25T03:51:12.034Z,64.70
2023-03-25T03:56:23.686Z,64.80
2023-03-25T04:01:34.202Z,65.00
2023-03-25T04:06:57.271Z,64.90
2023-03-25T04:12:06.541Z,65.10
2023-03-25T04:17:10.991Z,64.90
2023-03-25T04:22:18.814Z,65.10
2023-03-25T04:27:30.152Z,65.40
2023-03-25T04:32:35.223Z,65.20
2023-03-25T04:37:39.194Z,65.00
2023-03-25T04:42:43.132Z,64.70
2023-03-25T04:47:48.657Z,64.40
2023-03-25T04:52:53.600Z,64.60
2023-03-25T04:57:58.619Z,65.00
2023-03-25T05:03:02.565Z,65.50
2023-03-25T05:08:06.766Z,64.80
2023-03-25T05:13:12.811Z,65.40
2023-03-25T05:18:17.996Z,65.40
2023-03-25T05:23:22.448Z,65.20
2023-03-25T05:28:26.581Z,65.50
2023-03-25T05:33:30.818Z,65.80
2023-03-25T05:38:35.362Z,65.90
2023-03-25T05:43:39.397Z,65.50
2023-03-25T05:48:43.321Z,65.50
2023-03-25T05:53:51.731Z,65.50
2023-03-25T05:58:56.825Z,65.50
2023-03-25T06:04:02.893Z,65.50
2023-03-25T06:09:08.188Z,65.50
2023-03-25T06:14:12.288Z,65.80
2023-03-25T06:19:18.887Z,65.50
2023-03-25T06:24:22.808Z,65.50
2023-03-25T06:29:27.558Z,65.50
2023-03-25T06:34:33.340Z,65.50
2023-03-25T06:39:42.178Z,65.30
2023-03-25T06:44:53.468Z,64.60
2023-03-25T06:50:17.963Z,63.70
2023-03-25T06:55:21.909Z,63.50
2023-03-25T07:00:27.369Z,63.70
2023-03-25T07:05:31.384Z,63.10
2023-03-25T07:10:35.641Z,63.30
2023-03-25T07:15:39.765Z,62.90
2023-03-25T07:20:46.371Z,62.80
2023-03-25T07:25:51.218Z,62.70
2023-03-25T07:30:55.849Z,62.60
2023-03-25T07:36:00.193Z,63.00
2023-03-25T07:41:08.782Z,62.30
2023-03-25T07:46:13.110Z,62.80
2023-03-25T07:51:17.623Z,62.10
2023-03-25T07:56:21.871Z,61.80
2023-03-25T08:01:27.353Z,61.80
2023-03-25T08:06:31.564Z,62.00
2023-03-25T08:11:35.901Z,61.90
2023-03-25T08:16:39.967Z,61.30
2023-03-25T08:21:45.599Z,61.20
2023-03-25T08:26:50.848Z,61.50
2023-03-25T08:31:54.927Z,61.00
2023-03-25T08:36:59.022Z,61.20
2023-03-25T08:42:03.456Z,61.30
2023-03-25T08:47:07.497Z,62.80
2023-03-25T08:52:11.748Z,62.80
2023-03-25T08:57:15.780Z,62.20
2023-03-25T09:02:19.794Z,62.10
2023-03-25T09:07:23.844Z,62.70
2023-03-25T09:12:27.978Z,63.90
2023-03-25T09:17:32.029Z,63.60
2023-03-25T09:22:37.485Z,63.30
2023-03-25T09:27:41.501Z,63.20
2023-03-25T09:32:46.014Z,64.00
2023-03-25T09:37:52.210Z,64.20
2023-03-25T09:43:23.074Z,64.60
2023-03-25T09:48:40.807Z,64.20
2023-03-25T09:53:51.730Z,63.90
2023-03-25T09:59:02.074Z,63.90
2023-03-25T10:04:15.771Z,64.30
2023-03-25T10:09:47.834Z,63.30
2023-03-25T10:15:04.533Z,63.60
2023-03-25T10:20:14.494Z,65.10
2023-03-25T10:25:23.368Z,64.30
2023-03-25T10:30:27.382Z,65.10
2023-03-25T10:35:37.694Z,64.00
2023-03-25T10:40:53.646Z,64.60
2023-03-25T10:46:14.730Z,65.20
2023-03-25T10:51:24.971Z,64.00
2023-03-25T10:56:45.690Z,64.30
2023-03-25T11:01:51.037Z,63.90
2023-03-25T11:06:59.796Z,63.90
2023-03-25T11:12:07.374Z,62.40
2023-03-25T11:17:21.545Z,62.20
2023-03-25T11:22:29.962Z,61.90
2023-03-25T11:27:46.069Z,62.10
2023-03-25T11:33:05.276Z,63.10
2023-03-25T11:38:24.064Z,63.30
2023-03-25T11:43:35.428Z,63.30
2023-03-25T11:48:42.238Z,63.70
2023-03-25T11:53:50.677Z,64.70
2023-03-25T11:59:00.041Z,66.60
2023-03-25T12:04:21.295Z,66.10
2023-03-25T12:09:30.279Z,64.60
2023-03-25T12:14:44.086Z,65.00
2023-03-25T12:20:27.884Z,64.30
2023-03-25T12:25:32.027Z,64.30
2023-03-25T12:31:08.011Z,63.20
2023-03-25T12:36:14.667Z,63.20
2023-03-25T12:41:34.067Z,62.50
2023-03-25T12:47:16.473Z,62.70
2023-03-25T12:52:36.572Z,61.90
2023-03-25T12:57:49.600Z,61.00
2023-03-25T13:03:20.261Z,61.00
2023-03-25T13:08:37.181Z,61.20
2023-03-25T13:13:44.521Z,61.00
2023-03-25T13:18:55.335Z,61.00
2023-03-25T13:24:07.587Z,60.90
2023-03-25T13:29:53.474Z,60.70
2023-03-25T13:35:03.025Z,60.80
2023-03-25T13:40:28.737Z,61.30
2023-03-25T13:45:59.628Z,60.90
2023-03-25T13:51:07.938Z,60.70
2023-03-25T13:56:39.505Z,60.70
2023-03-25T14:02:12.485Z,60.90
2023-03-25T14:07:35.871Z,60.90
2023-03-25T14:13:02.192Z,60.30
2023-03-25T14:18:14.010Z,60.20
2023-03-25T14:23:21.526Z,60.10
2023-03-25T14:28:41.100Z,59.80
2023-03-25T14:34:01.083Z,59.80
2023-03-25T14:39:11.235Z,59.70
2023-03-25T14:44:20.040Z,59.80
2023-03-25T14:49:30.515Z,59.50
2023-03-25T14:54:36.413Z,60.00
2023-03-25T14:59:54.123Z,59.70
2023-03-25T15:05:17.261Z,59.30
2023-03-25T15:10:29.751Z,59.30
2023-03-25T15:15:46.681Z,59.50
2023-03-25T15:20:51.187Z,59.40
2023-03-25T15:25:57.052Z,59.10
2023-03-25T15:31:23.707Z,58.80
2023-03-25T15:36:48.096Z,59.00
2023-03-25T15:42:21.396Z,58.80
2023-03-25T15:47:25.273Z,58.60
2023-03-25T15:52:57.813Z,58.70
2023-03-25T15:58:06.466Z,58.60
2023-03-25T16:03:21.398Z,59.00
2023-03-25T16:08:47.626Z,58.40
2023-03-25T16:14:12.851Z,58.40
2023-03-25T16:19:22.070Z,58.90
2023-03-25T16:24:30.082Z,59.10
2023-03-25T16:29:34.717Z,58.90
2023-03-25T16:34:41.935Z,59.10
2023-03-25T16:39:52.632Z,59.20
2023-03-25T16:44:56.727Z,60.00
2023-03-25T16:50:04.701Z,59.90
2023-03-25T16:55:31.094Z,59.90
2023-03-25T17:00:43.519Z,59.20
2023-03-25T17:06:23.865Z,59.90
2023-03-25T17:11:33.708Z,59.80
2023-03-25T17:16:40.506Z,59.90
2023-03-25T17:22:05.262Z,59.80
2023-03-25T17:27:35.118Z,60.10
2023-03-25T17:32:46.098Z,60.50
2023-03-25T17:37:50.938Z,60.20
2023-03-25T17:42:57.501Z,60.20
2023-03-25T17:48:02.297Z,60.10
2023-03-25T17:53:08.256Z,60.40
2023-03-25T17:58:15.428Z,59.90
2023-03-25T18:03:25.670Z,59.70
2023-03-25T18:08:30.764Z,59.70
2023-03-25T18:13:39.654Z,59.80
2023-03-25T18:18:46.877Z,59.60
2023-03-25T18:23:52.338Z,59.60
2023-03-25T18:28:57.337Z,60.60
2023-03-25T18:34:11.984Z,60.00
2023-03-25T18:39:22.808Z,60.00
2023-03-25T18:44:32.080Z,60.80
2023-03-25T18:49:40.864Z,60.60
2023-03-25T18:54:48.396Z,60.60
2023-03-25T18:59:53.836Z,60.60
2023-03-25T19:05:00.993Z,60.50
2023-03-25T19:10:07.216Z,60.60
2023-03-25T19:15:15.987Z,60.90
2023-03-25T19:20:24.983Z,60.60
2023-03-25T19:25:30.856Z,60.20
2023-03-25T19:30:38.909Z,60.20
2023-03-25T19:35:55.457Z,60.20
2023-03-25T19:41:10.606Z,60.20
2023-03-25T19:46:18.053Z,59.50
2023-03-25T19:51:25.489Z,60.00
2023-03-25T19:56:34.612Z,60.10
2023-03-25T20:01:40.946Z,60.40
2023-03-25T20:06:47.078Z,60.70
2023-03-25T20:11:53.130Z,60.50
2023-03-25T20:16:59.456Z,59.60
2023-03-25T20:22:15.138Z,59.90
2023-03-25T20:27:29.588Z,59.20
2023-03-25T20:32:41.259Z,59.40
2023-03-25T20:37:49.906Z,59.60
2023-03-25T20:42:56.965Z,59.50
2023-03-25T20:48:02.999Z,60.00
2023-03-25T20:53:10.107Z,60.30
2023-03-25T20:58:14.794Z,60.50
2023-03-25T21:03:21.531Z,60.60
2023-03-25T21:08:32.882Z,62.10
2023-03-25T21:13:38.038Z,62.90
2023-03-25T21:18:43.626Z,63.30
2023-03-25T21:23:49.884Z,62.60
2023-03-25T21:28:56.127Z,62.30
2023-03-25T21:34:02.384Z,62.30
2023-03-25T21:39:08.476Z,62.00
2023-03-25T21:44:16.158Z,62.10
2023-03-25T21:49:24.030Z,62.10
2023-03-25T21:54:29.847Z,61.90
2023-03-25T21:59:34.741Z,61.80
2023-03-25T22:04:39.572Z,61.90
2023-03-25T22:09:43.690Z,61.60
2023-03-25T22:14:48.118Z,61.80
2023-03-25T22:19:52.361Z,61.80
2023-03-25T22:24:56.293Z,61.80
2023-03-25T22:30:01.765Z,61.60
2023-03-25T22:35:07.295Z,61.70
2023-03-25T22:40:12.175Z,61.40
2023-03-25T22:45:16.723Z,61.10
2023-03-25T22:50:20.662Z,60.80
2023-03-25T22:55:26.504Z,60.30
2023-03-25T23:00:30.546Z,59.90
2023-03-25T23:05:35.853Z,59.90
2023-03-25T23:10:44.689Z,59.60
2023-03-25T23:15:48.605Z,59.40
2023-03-25T23:20:52.920Z,59.20
2023-03-25T23:26:06.839Z,59.00
2023-03-25T23:31:25.185Z,58.80
2023-03-25T23:36:37.780Z,58.50
2023-03-25T23:41:47.858Z,58.30
2023-03-25T23:47:00.908Z,57.80
2023-03-25T23:52:12.134Z,57.90
2023-03-25T23:57:16.581Z,58.50
